Latest Weather Observations for Richmond

IDN60801

Issued at 6:32 am EST Saturday 27 May 2017 (issued every 30 minutes, with the page automatically refreshed every 10 minutes)

About weather observations | Map of weather stations | Latest weather observations for NSW | Other Formats
Station Details ID: 067105 Name: RICHMOND RAAF Lat: -33.60 Lon: 150.78 Height: 19.0 m
Data from the previous 72 hours. | See also: Recent months at Richmond
Date/Time
EST
Temp
°C
App
Temp
°C
Dew
Point
°C
Rel
Hum
%
Delta-T
°C
Wind Press
QNH
hPa
Press
MSL
hPa
Rain since
9am
mm
Dir  Spd
km/h
Gust
km/h
Spd
kts
Gust
kts
27/06:30am 9.0 8.8 8.9 99 0.0 CALM 0 0 0 0 1021.8 1021.8 0.0
27/06:00am 8.8 8.5 8.7 99 0.0 CALM 0 0 0 0 1021.6 1021.6 0.0
27/05:30am 8.3 7.8 8.0 98 0.1 CALM 0 0 0 0 1021.5 1021.5 0.0
27/05:00am 8.0 7.5 7.9 99 0.0 CALM 0 0 0 0 1021.3 1021.3 0.0
27/04:43am 8.2 7.8 8.1 99 0.0 CALM 0 0 0 0 1021.3 1021.3 0.0
27/04:30am 8.4 8.0 8.3 99 0.0 CALM 0 0 0 0 1021.2 1021.2 0.0
27/04:00am 8.4 8.0 8.3 99 0.0 CALM 0 0 0 0 1021.3 1021.3 0.0
27/03:46am 8.0 7.5 7.7 98 0.1 CALM 0 0 0 0 1021.3 1021.3 0.0
27/03:44am 8.0 7.5 7.7 98 0.1 CALM 0 0 0 0 1021.3 1021.3 0.0
27/03:30am 7.5 6.9 7.2 98 0.1 CALM 0 0 0 0 1021.4 1021.4 0.0
27/03:00am 7.1 6.4 6.8 98 0.1 CALM 0 0 0 0 1021.6 1021.6 0.0
27/02:59am 7.0 6.2 6.7 98 0.1 CALM 0 0 0 0 1021.6 1021.6 0.0
27/02:36am 7.3 6.6 7.0 98 0.1 CALM 0 6 0 3 1021.7 1021.7 0.0
27/02:30am 7.6 6.6 7.3 98 0.1 SSE 2 7 1 4 1021.8 1021.8 0.0
27/02:00am 7.7 7.1 7.4 98 0.1 CALM 0 0 0 0 1021.7 1021.7 0.0
27/01:30am 7.9 6.6 7.6 98 0.1 ENE 4 7 2 4 1021.9 1021.9 0.0
27/01:03am 8.5 8.1 8.2 98 0.1 CALM 0 0 0 0 1022.1 1022.1 0.0
27/01:00am 8.8 8.5 8.5 98 0.1 CALM 0 0 0 0 1022.1 1022.1 0.0
27/12:39am 9.3 9.1 9.0 98 0.1 CALM 0 0 0 0 1022.0 1022.0 0.0
27/12:30am 9.0 8.7 8.7 98 0.1 CALM 0 0 0 0 1022.1 1022.1 0.0
27/12:21am 8.7 8.3 8.4 98 0.1 CALM 0 0 0 0 1022.2 1022.2 0.0
27/12:14am 9.0 8.7 8.7 98 0.1 CALM 0 0 0 0 1022.2 1022.2 0.0
27/12:00am 9.4 8.8 9.1 98 0.1 ENE 2 7 1 4 1022.2 1022.2 0.0
 
Date/Time
EST
Temp
°C
App
Temp
°C
Dew
Point
°C
Rel
Hum
%
Delta-T
°C
Wind Press
QNH
hPa
Press
MSL
hPa
Rain since
9am
mm
Dir  Spd
km/h
Gust
km/h
Spd
kts
Gust
kts
26/11:30pm 9.5 9.3 9.2 98 0.1 CALM 0 0 0 0 1022.2 1022.2 0.0
26/11:29pm 9.5 9.3 9.2 98 0.1 CALM 0 0 0 0 1022.2 1022.2 0.0
26/11:00pm 10.1 10.1 9.8 98 0.2 CALM 0 0 0 0 1022.2 1022.2 0.0
26/10:30pm 9.8 9.7 9.5 98 0.1 CALM 0 0 0 0 1022.4 1022.4 0.0
26/10:00pm 10.2 10.2 9.9 98 0.2 CALM 0 0 0 0 1022.3 1022.3 0.0
26/09:30pm 10.1 9.7 9.8 98 0.2 NNW 2 7 1 4 1022.3 1022.3 0.0
26/09:00pm 11.0 11.2 10.4 96 0.3 CALM 0 0 0 0 1022.2 1022.2 0.0
26/08:30pm 11.4 10.5 10.5 94 0.5 WSW 6 9 3 5 1022.1 1022.1 0.0
26/08:00pm 11.9 11.0 10.6 92 0.7 WSW 6 9 3 5 1022.0 1022.0 0.0
26/07:30pm 12.0 10.9 10.1 88 1.0 W 6 7 3 4 1021.7 1021.7 0.0
26/07:00pm 13.2 12.3 9.3 77 2.0 SW 4 9 2 5 1021.4 1021.4 0.0
26/06:30pm 15.6 14.5 10.8 73 2.6 S 7 9 4 5 1021.2 1021.2 0.0
26/06:00pm 16.4 15.0 10.9 70 2.9 SSE 9 13 5 7 1020.9 1020.9 0.0
26/05:30pm 17.0 15.2 10.8 67 3.3 SE 11 15 6 8 1020.7 1020.7 0.0
26/05:00pm 18.0 16.2 10.9 63 3.8 SSE 11 17 6 9 1020.4 1020.4 0.0
26/04:30pm 19.6 19.8 10.6 56 4.9 CALM 0 0 0 0 1020.1 1020.1 0.0
26/04:00pm 19.1 17.5 10.1 56 4.8 ESE 9 11 5 6 1019.9 1019.9 0.0
26/03:30pm 19.3 16.9 10.0 55 5.0 SSE 13 17 7 9 1019.8 1019.8 0.0
26/03:00pm 18.8 16.3 9.8 56 4.8 SSE 13 17 7 9 1019.7 1019.7 0.0
26/02:30pm 19.7 17.7 10.1 54 5.2 S 11 17 6 9 1019.7 1019.7 0.0
26/02:00pm 19.4 17.0 9.9 54 5.1 S 13 19 7 10 1019.7 1019.7 0.0
26/01:30pm 19.6 18.3 9.8 53 5.2 S 7 13 4 7 1020.0 1020.0 0.0
26/01:00pm 18.8 16.7 9.8 56 4.8 SW 11 17 6 9 1020.3 1020.3 0.0
26/12:30pm 17.6 16.5 9.8 60 4.1 SSE 6 11 3 6 1020.6 1020.6 0.0
26/12:00pm 16.6 15.3 9.1 61 3.9 S 6 9 3 5 1021.0 1021.0 0.0
26/11:30am 16.1 15.0 9.8 66 3.3 ENE 6 11 3 6 1021.4 1021.4 0.0
26/11:00am 15.0 14.0 11.0 77 2.1 E 7 11 4 6 1021.8 1021.8 0.0
26/10:30am 14.0 12.8 10.2 78 2.0 NE 7 11 4 6 1022.1 1022.1 0.0
26/10:00am 12.5 10.8 9.9 84 1.3 ENE 9 11 5 6 1022.3 1022.3 0.0
26/09:30am 12.0 10.8 9.7 86 1.2 ENE 6 9 3 5 1022.3 1022.3 0.0
26/09:00am 9.5 9.3 8.9 96 0.3 CALM 0 0 0 0 1022.3 1022.3 0.0
26/08:30am 7.8 5.9 7.5 98 0.1 N 7 11 4 6 1022.3 1022.3 0.0
26/08:00am 6.5 5.7 6.4 99 0.0 CALM 0 0 0 0 1022.0 1022.0 0.0
26/07:44am 6.3 5.4 6.0 98 0.1 CALM 0 0 0 0 1021.8 1021.8 0.0
26/07:40am 5.6 4.5 5.3 98 0.1 CALM 0 0 0 0 1021.8 1021.8 0.0
26/07:30am 5.3 4.2 5.0 98 0.1 CALM 0 0 0 0 1021.7 1021.7 0.0
26/07:27am 5.0 3.8 4.7 98 0.1 CALM 0 0 0 0 1021.6 1021.6 0.0
26/07:24am 4.7 3.5 4.4 98 0.1 CALM 0 0 0 0 1021.6 1021.6 0.0
26/07:00am 4.1 2.7 3.8 98 0.1 CALM 0 0 0 0 1021.6 1021.6 0.0
26/06:30am 4.3 3.0 4.0 98 0.1 CALM 0 0 0 0 1021.2 1021.2 0.0
26/06:04am 4.4 3.1 4.1 98 0.1 CALM 0 0 0 0 1020.8 1020.8 0.0
26/06:00am 4.3 3.0 4.0 98 0.1 CALM 0 0 0 0 1020.9 1020.9 0.0
26/05:52am 4.7 2.7 4.4 98 0.1 S 4 7 2 4 1020.8 1020.8 0.0
26/05:35am 4.9 3.7 4.6 98 0.1 CALM 0 0 0 0 1020.4 1020.4 0.0
26/05:30am 4.8 3.6 4.5 98 0.1 CALM 0 0 0 0 1020.3 1020.3 0.0
26/05:09am 4.7 3.5 4.4 98 0.1 CALM 0 0 0 0 1020.1 1020.1 0.0
26/05:00am 5.1 3.9 4.8 98 0.1 CALM 0 0 0 0 1020.1 1020.1 0.0
26/04:30am 5.1 3.9 4.8 98 0.1 CALM 0 0 0 0 1019.8 1019.8 0.0
26/04:00am 5.5 4.4 5.2 98 0.1 CALM 0 0 0 0 1019.5 1019.5 0.0
26/03:30am 5.3 4.2 5.0 98 0.1 CALM 0 0 0 0 1019.4 1019.4 0.0
26/03:00am 5.3 4.2 5.0 98 0.1 CALM 0 0 0 0 1019.3 1019.3 0.0
26/02:58am 5.4 4.3 5.1 98 0.1 CALM 0 0 0 0 1019.3 1019.3 0.0
26/02:52am 5.3 3.8 5.0 98 0.1 SSE 2 6 1 3 1019.3 1019.3 0.0
26/02:48am 5.0 3.1 4.7 98 0.1 SSE 4 7 2 4 1019.3 1019.3 0.0
26/02:30am 6.2 3.9 5.9 98 0.1 SE 7 9 4 5 1019.2 1019.2 0.0
26/02:00am 5.5 3.7 5.2 98 0.1 ENE 4 7 2 4 1019.3 1019.3 0.0
26/01:56am 5.5 3.3 5.2 98 0.1 NE 6 9 3 5 1019.3 1019.3 0.0
26/01:33am 6.4 5.5 6.1 98 0.1 CALM 0 0 0 0 1019.3 1019.3 0.0
26/01:30am 6.7 5.9 6.4 98 0.1 CALM 0 0 0 0 1019.3 1019.3 0.0
26/01:14am 6.9 6.1 6.6 98 0.1 CALM 0 0 0 0 1019.5 1019.5 0.0
26/01:00am 6.9 6.1 6.6 98 0.1 CALM 0 0 0 0 1019.6 1019.6 0.0
26/12:55am 6.8 6.0 6.5 98 0.1 CALM 0 0 0 0 1019.6 1019.6 0.0
26/12:30am 7.4 6.7 7.1 98 0.1 CALM 0 0 0 0 1019.8 1019.8 0.0
26/12:00am 7.4 6.7 7.1 98 0.1 CALM 0 0 0 0 1019.9 1019.9 0.0
 
Date/Time
EST
Temp
°C
App
Temp
°C
Dew
Point
°C
Rel
Hum
%
Delta-T
°C
Wind Press
QNH
hPa
Press
MSL
hPa
Rain since
9am
mm
Dir  Spd
km/h
Gust
km/h
Spd
kts
Gust
kts
25/11:56pm 7.4 6.7 7.1 98 0.1 CALM 0 0 0 0 1019.9 1019.9 0.0
25/11:30pm 7.1 6.4 6.8 98 0.1 CALM 0 0 0 0 1020.1 1020.1 0.0
25/11:00pm 7.3 6.6 7.0 98 0.1 CALM 0 0 0 0 1020.1 1020.1 0.0
25/10:30pm 8.1 7.6 7.8 98 0.1 CALM 0 0 0 0 1020.1 1020.1 0.0
25/10:00pm 8.8 8.4 8.2 96 0.3 CALM 0 0 0 0 1020.1 1020.1 0.0
25/09:30pm 9.4 9.1 8.6 95 0.4 CALM 0 0 0 0 1020.2 1020.2 0.0
25/09:00pm 9.9 9.0 9.1 95 0.4 ESE 4 6 2 3 1020.1 1020.1 0.0
25/08:30pm 10.1 8.7 9.0 93 0.5 N 6 9 3 5 1020.1 1020.1 0.0
25/08:00pm 10.7 10.6 9.3 91 0.7 CALM 0 0 0 0 1020.0 1020.0 0.0
25/07:30pm 11.5 11.3 9.1 85 1.2 CALM 0 0 0 0 1020.0 1020.0 0.0
25/07:00pm 11.8 11.5 8.8 82 1.5 CALM 0 0 0 0 1019.8 1019.8 0.0
25/06:30pm 12.5 11.0 9.1 80 1.7 W 7 9 4 5 1019.7 1019.7 0.0
25/06:00pm 13.3 12.8 7.7 69 2.7 CALM 0 0 0 0 1019.5 1019.5 0.0
25/05:30pm 14.4 13.9 7.7 64 3.3 CALM 0 0 0 0 1019.3 1019.3 0.0
25/05:00pm 16.4 14.6 7.3 55 4.5 ENE 6 7 3 4 1019.1 1019.1 0.0
25/04:30pm 18.2 16.4 7.3 49 5.5 ENE 6 7 3 4 1018.9 1018.9 0.0
25/04:00pm 18.8 17.0 7.9 49 5.6 NE 7 13 4 7 1018.8 1018.8 0.0
25/03:30pm 19.2 17.1 6.7 44 6.3 ENE 7 11 4 6 1018.8 1018.8 0.0
25/03:00pm 19.5 17.2 5.6 40 6.8 NNE 7 11 4 6 1018.8 1018.8 0.0
25/02:30pm 19.6 17.4 6.0 41 6.7 N 7 13 4 7 1018.9 1018.9 0.0
25/02:00pm 19.8 17.4 7.2 44 6.4 NNE 9 15 5 8 1018.9 1018.9 0.0
25/01:30pm 19.5 17.1 6.9 44 6.4 NE 9 13 5 7 1019.2 1019.2 0.0
25/01:00pm 19.2 17.0 6.3 43 6.4 NE 7 13 4 7 1019.4 1019.4 0.0
25/12:30pm 18.5 16.8 7.6 49 5.5 ESE 6 9 3 5 1019.8 1019.8 0.0
25/12:00pm 17.8 16.6 8.1 53 4.9 ESE 4 9 2 5 1020.3 1020.3 0.0
25/11:30am 16.6 15.0 7.8 56 4.4 ENE 6 9 3 5 1021.0 1021.0 0.0
25/11:00am 15.9 14.2 7.7 58 4.1 NNE 6 11 3 6 1021.3 1021.3 0.0
25/10:30am 15.5 14.6 7.8 60 3.9 NE 2 7 1 4 1021.7 1021.7 0.0
25/10:00am 14.5 13.5 8.7 68 2.9 NNE 4 7 2 4 1021.8 1021.8 0.0
25/09:30am 13.1 12.4 8.4 73 2.3 NE 2 7 1 4 1021.8 1021.8 0.0
25/09:00am 12.2 11.9 8.7 79 1.7 CALM 0 0 0 0 1021.8 1021.8 0.2
25/08:30am 10.0 9.7 8.8 92 0.6 CALM 0 0 0 0 1022.0 1022.0 0.2
25/08:00am 7.7 6.0 7.4 98 0.1 N 6 7 3 4 1021.7 1021.7 0.2
25/07:30am 5.9 4.9 5.6 98 0.1 CALM 0 0 0 0 1021.3 1021.3 0.2
25/07:00am 5.4 4.3 5.1 98 0.1 CALM 0 0 0 0 1020.9 1020.9 0.2
25/06:30am 5.2 4.1 4.9 98 0.1 CALM 0 0 0 0 1020.7 1020.7 0.2
25/06:00am 5.3 4.2 5.0 98 0.1 CALM 0 0 0 0 1020.3 1020.3 0.2
25/05:58am 5.3 4.2 5.0 98 0.1 CALM 0 0 0 0 1020.2 1020.2 0.2
25/05:30am 5.8 4.8 5.5 98 0.1 CALM 0 0 0 0 1019.9 1019.9 0.2
25/05:00am 5.6 4.5 5.3 98 0.1 CALM 0 0 0 0 1019.7 1019.7 0.2
25/04:57am 5.3 4.2 5.0 98 0.1 CALM 0 0 0 0 1019.7 1019.7 0.2
25/04:30am 5.9 4.9 5.6 98 0.1 CALM 0 0 0 0 1019.6 1019.6 0.2
25/04:00am 5.7 4.7 5.4 98 0.1 CALM 0 0 0 0 1019.4 1019.4 0.2
25/03:30am 5.8 4.8 5.5 98 0.1 CALM 0 0 0 0 1019.2 1019.2 0.2
25/03:00am 6.0 5.0 5.7 98 0.1 CALM 0 0 0 0 1019.0 1019.0 0.2
25/02:30am 6.9 6.1 6.6 98 0.1 CALM 0 0 0 0 1018.8 1018.8 0.2
25/02:00am 6.9 6.0 6.0 94 0.4 CALM 0 0 0 0 1018.9 1018.9 0.2
25/01:30am 6.9 5.9 5.7 92 0.5 CALM 0 4 0 2 1019.0 1019.0 0.2
25/01:00am 7.8 5.8 6.1 89 0.8 SE 6 9 3 5 1019.0 1019.0 0.2
25/12:30am 9.1 8.0 6.9 86 1.0 SE 2 7 1 4 1019.0 1019.0 0.2
25/12:00am 10.1 8.3 7.2 82 1.4 NNE 6 11 3 6 1018.9 1018.9 0.2
 
Date/Time
EST
Temp
°C
App
Temp
°C
Dew
Point
°C
Rel
Hum
%
Delta-T
°C
Wind Press
QNH
hPa
Press
MSL
hPa
Rain since
9am
mm
Dir  Spd
km/h
Gust
km/h
Spd
kts
Gust
kts
24/11:30pm 9.2 8.0 6.6 84 1.2 SSW 2 6 1 3 1019.0 1019.0 0.2
24/11:00pm 10.1 8.5 6.3 77 1.8 NW 4 11 2 6 1018.8 1018.8 0.2
24/10:30pm 10.3 8.6 7.4 82 1.4 NNE 6 7 3 4 1018.7 1018.7 0.2
24/10:00pm 10.3 8.5 7.2 81 1.5 NNE 6 9 3 5 1018.6 1018.6 0.2
24/09:30pm 10.9 9.4 6.8 76 1.9 N 4 6 2 3 1018.7 1018.7 0.2
24/09:00pm 11.3 8.3 6.2 71 2.4 WNW 11 13 6 7 1018.4 1018.4 0.2
24/08:30pm 12.8 9.6 6.8 67 2.9 WNW 13 13 7 7 1018.2 1018.2 0.2
24/08:00pm 11.0 8.1 6.7 75 2.0 W 11 13 6 7 1017.9 1017.9 0.2
24/07:30pm 12.1 9.6 6.4 68 2.7 SW 9 11 5 6 1017.7 1017.7 0.2
24/07:00pm 13.6 10.3 6.2 61 3.5 W 13 15 7 8 1017.3 1017.3 0.2
24/06:30pm 14.9 11.9 6.0 55 4.3 W 11 52 6 28 1016.8 1016.8 0.2
24/06:00pm 15.8 12.0 5.7 51 4.8 W 15 19 8 10 1016.2 1016.2 0.2
24/05:30pm 17.7 12.8 5.3 44 6.0 W 20 26 11 14 1015.8 1015.8 0.2
24/05:00pm 18.2 12.9 5.1 42 6.3 W 22 32 12 17 1015.3 1015.3 0.0
24/04:30pm 19.7 12.7 4.2 36 7.4 W 30 43 16 23 1014.7 1014.7 0.0
24/04:00pm 20.9 14.7 4.5 34 8.0 W 26 32 14 17 1014.2 1014.2 0.0
24/03:30pm 21.6 16.4 5.5 35 8.0 WSW 22 33 12 18 1013.7 1013.7 0.0
24/03:00pm 22.0 15.9 5.0 33 8.4 W 26 37 14 20 1013.3 1013.3 0.0
24/02:30pm 22.4 16.4 5.4 33 8.5 WSW 26 37 14 20 1012.9 1012.9 0.0
24/02:00pm 22.8 17.6 5.7 33 8.6 WSW 22 30 12 16 1012.9 1012.9 0.0
24/01:30pm 22.8 17.2 5.3 32 8.8 WSW 24 39 13 21 1012.9 1012.9 0.0
24/01:00pm 22.9 17.6 6.6 35 8.4 WSW 24 32 13 17 1012.9 1012.9 0.0
24/12:30pm 23.3 18.2 7.8 37 8.1 WSW 24 33 13 18 1013.0 1013.0 0.0
24/12:00pm 22.5 19.3 11.3 49 6.2 SW 19 28 10 15 1013.5 1013.5 0.0
24/11:30am 21.3 18.3 10.5 50 5.9 SW 17 24 9 13 1013.8 1013.8 0.0
24/11:00am 22.6 19.5 11.7 50 6.1 NW 19 24 10 13 1013.9 1013.9 0.0
24/10:30am 21.8 20.0 14.4 63 4.3 NNW 17 20 9 11 1014.2 1014.2 0.0
24/10:00am 19.6 17.6 14.0 70 3.2 NNW 17 28 9 15 1014.6 1014.6 0.0
24/09:30am 17.7 17.6 15.0 84 1.6 N 9 17 5 9 1014.6 1014.6 0.0
24/09:00am 16.2 15.7 13.7 85 1.4 NNE 9 13 5 7 1014.9 1014.9 0.6
24/08:30am 15.2 16.0 13.7 91 0.8 ESE 2 6 1 3 1015.1 1015.1 0.6
24/08:00am 13.6 14.3 13.3 98 0.2 WSW 2 6 1 3 1015.0 1015.0 0.6
24/07:30am 12.8 11.9 12.6 99 0.1 N 9 13 5 7 1015.2 1015.2 0.6
24/07:00am 11.9 11.1 11.6 98 0.2 NNE 7 11 4 6 1015.1 1015.1 0.6

Other Formats:

Comma delimited format used in spreadsheet applications
http://www.bom.gov.au/fwo/IDN60801/IDN60801.95753.axf

JavaScript Object Notation format (JSON) in row-major order
http://www.bom.gov.au/fwo/IDN60801/IDN60801.95753.json